createdAt,value
2023-01-22T00:01:24.426Z,80.92
2023-01-22T00:03:52.508Z,80.77
2023-01-22T00:06:19.355Z,80.14
2023-01-22T00:08:46.775Z,80.52
2023-01-22T00:11:13.427Z,80.27
2023-01-22T00:13:40.282Z,80.14
2023-01-22T00:16:07.122Z,80.57
2023-01-22T00:18:33.830Z,81.03
2023-01-22T00:21:00.484Z,80.38
2023-01-22T00:23:27.037Z,80.43
2023-01-22T00:26:13.098Z,79.80
2023-01-22T00:28:45.444Z,79.71
2023-01-22T00:31:13.090Z,79.71
2023-01-22T00:33:40.994Z,79.37
2023-01-22T00:36:08.562Z,79.02
2023-01-22T00:38:35.136Z,79.53
2023-01-22T00:41:02.493Z,79.15
2023-01-22T00:43:29.549Z,78.88
2023-01-22T00:45:56.133Z,78.92
2023-01-22T00:48:22.705Z,79.03
2023-01-22T00:50:49.401Z,78.96
2023-01-22T00:53:16.060Z,78.85
2023-01-22T00:55:52.666Z,78.97
2023-01-22T00:58:19.431Z,79.68
2023-01-22T01:00:46.024Z,79.56
2023-01-22T01:03:28.176Z,79.14
2023-01-22T01:05:54.938Z,79.73
2023-01-22T01:08:21.641Z,79.57
2023-01-22T01:10:48.194Z,80.29
2023-01-22T01:13:14.783Z,79.64
2023-01-22T01:15:42.043Z,79.39
2023-01-22T01:18:13.041Z,79.14
2023-01-22T01:20:40.233Z,79.68
2023-01-22T01:23:06.976Z,79.20
2023-01-22T01:25:33.554Z,79.08
2023-01-22T01:28:00.250Z,79.07
2023-01-22T01:30:28.006Z,79.10
2023-01-22T01:32:54.919Z,78.96
2023-01-22T01:35:24.171Z,78.81
2023-01-22T01:37:52.118Z,79.11
2023-01-22T01:40:19.988Z,79.20
2023-01-22T01:42:46.623Z,78.85
2023-01-22T01:45:25.421Z,78.71
2023-01-22T01:47:53.989Z,78.74
2023-01-22T01:50:20.711Z,79.25
2023-01-22T01:52:47.260Z,78.84
2023-01-22T01:55:14.350Z,78.91
2023-01-22T01:57:41.158Z,78.62
2023-01-22T02:00:10.701Z,78.81
2023-01-22T02:02:41.421Z,79.22
2023-01-22T02:05:08.993Z,78.94
2023-01-22T02:07:35.877Z,78.60
2023-01-22T02:10:06.259Z,79.03
2023-01-22T02:12:34.130Z,78.97
2023-01-22T02:15:03.886Z,79.18
2023-01-22T02:17:30.969Z,78.72
2023-01-22T02:19:57.561Z,78.74
2023-01-22T02:22:26.062Z,78.80
2023-01-22T02:24:52.718Z,78.77
2023-01-22T02:27:19.294Z,79.25
2023-01-22T02:29:47.677Z,78.79
2023-01-22T02:32:14.342Z,78.62
2023-01-22T02:34:41.105Z,78.69
2023-01-22T02:37:09.171Z,78.90
2023-01-22T02:39:35.807Z,78.62
2023-01-22T02:42:04.415Z,78.72
2023-01-22T02:44:34.090Z,78.83
2023-01-22T02:47:00.722Z,78.62
2023-01-22T02:49:27.663Z,78.31
2023-01-22T02:51:54.221Z,78.55
2023-01-22T02:54:21.969Z,78.46
2023-01-22T02:56:49.686Z,78.66
2023-01-22T02:59:16.252Z,79.02
2023-01-22T03:01:42.862Z,78.73
2023-01-22T03:04:12.373Z,78.68
2023-01-22T03:06:39.979Z,78.33
2023-01-22T03:09:07.352Z,78.61
2023-01-22T03:11:37.068Z,78.19
2023-01-22T03:14:26.705Z,78.87
2023-01-22T03:17:12.593Z,78.73
2023-01-22T03:19:58.121Z,78.71
2023-01-22T03:22:25.301Z,78.59
2023-01-22T03:24:53.093Z,78.56
2023-01-22T03:27:23.784Z,78.40
2023-01-22T03:29:50.477Z,78.41
2023-01-22T03:32:18.965Z,78.55
2023-01-22T03:34:45.559Z,78.41
2023-01-22T03:37:15.595Z,78.47
2023-01-22T03:39:44.445Z,79.18
2023-01-22T03:42:17.644Z,79.26
2023-01-22T03:44:44.878Z,79.05
2023-01-22T03:47:11.588Z,79.04
2023-01-22T03:49:38.233Z,78.90
2023-01-22T03:52:05.744Z,79.08
2023-01-22T03:54:32.314Z,78.81
2023-01-22T03:57:02.363Z,79.12
2023-01-22T03:59:32.116Z,78.74
2023-01-22T04:01:58.887Z,79.11
2023-01-22T04:04:25.578Z,78.61
2023-01-22T04:06:52.317Z,79.02
2023-01-22T04:09:19.014Z,79.12
2023-01-22T04:11:47.044Z,78.73
2023-01-22T04:14:15.313Z,78.85
2023-01-22T04:16:51.154Z,78.80
2023-01-22T04:19:29.343Z,78.95
2023-01-22T04:22:02.298Z,78.59
2023-01-22T04:24:29.219Z,78.49
2023-01-22T04:26:55.989Z,78.41
2023-01-22T04:29:22.622Z,78.46
2023-01-22T04:31:49.969Z,78.30
2023-01-22T04:34:19.783Z,77.97
2023-01-22T04:36:54.110Z,78.10
2023-01-22T04:39:21.350Z,78.14
2023-01-22T04:41:47.950Z,78.26
2023-01-22T04:44:14.573Z,78.47
2023-01-22T04:46:41.948Z,78.30
2023-01-22T04:49:08.532Z,78.15
2023-01-22T04:51:35.556Z,78.14
2023-01-22T04:54:02.118Z,78.39
2023-01-22T04:56:28.685Z,78.33
2023-01-22T04:58:55.305Z,78.36
2023-01-22T05:01:22.106Z,78.41
2023-01-22T05:03:49.798Z,78.31
2023-01-22T05:06:16.419Z,78.19
2023-01-22T05:08:43.009Z,78.31
2023-01-22T05:11:10.581Z,78.05
2023-01-22T05:13:43.743Z,78.63
2023-01-22T05:16:10.524Z,78.59
2023-01-22T05:18:37.204Z,78.94
2023-01-22T05:21:03.838Z,79.23
2023-01-22T05:23:31.816Z,78.91
2023-01-22T05:25:58.395Z,78.73
2023-01-22T05:28:51.045Z,78.46
2023-01-22T05:31:23.996Z,78.59
2023-01-22T05:34:00.642Z,78.39
2023-01-22T05:36:28.687Z,78.30
2023-01-22T05:38:59.401Z,78.25
2023-01-22T05:41:26.776Z,78.34
2023-01-22T05:43:54.510Z,78.78
2023-01-22T05:46:25.939Z,78.54
2023-01-22T05:48:58.861Z,78.62
2023-01-22T05:51:27.272Z,78.33
2023-01-22T05:53:54.014Z,78.23
2023-01-22T05:56:20.640Z,78.39
2023-01-22T05:58:47.202Z,78.47
2023-01-22T06:01:13.878Z,78.53
2023-01-22T06:03:44.834Z,78.37
2023-01-22T06:06:14.359Z,78.20
2023-01-22T06:08:42.755Z,78.08
2023-01-22T06:11:13.528Z,78.10
2023-01-22T06:13:44.093Z,78.27
2023-01-22T06:16:22.583Z,78.19
2023-01-22T06:18:52.072Z,78.12
2023-01-22T06:21:18.755Z,78.61
2023-01-22T06:23:45.337Z,78.57
2023-01-22T06:26:13.006Z,78.45
2023-01-22T06:28:41.225Z,78.49
2023-01-22T06:31:08.040Z,78.62
2023-01-22T06:33:36.952Z,78.68
2023-01-22T06:36:04.737Z,78.46
2023-01-22T06:38:31.364Z,78.69
2023-01-22T06:41:00.941Z,78.81
2023-01-22T06:43:28.648Z,78.66
2023-01-22T06:45:55.348Z,78.88
2023-01-22T06:48:38.597Z,78.53
2023-01-22T06:51:05.536Z,78.61
2023-01-22T06:53:32.129Z,78.98
2023-01-22T06:55:59.111Z,78.65
2023-01-22T06:58:26.512Z,78.94
2023-01-22T07:00:53.124Z,78.80
2023-01-22T07:03:19.753Z,78.75
2023-01-22T07:05:46.373Z,79.16
2023-01-22T07:08:15.788Z,79.11
2023-01-22T07:10:42.364Z,78.92
2023-01-22T07:13:10.396Z,78.94
2023-01-22T07:15:37.016Z,78.85
2023-01-22T07:18:03.642Z,79.21
2023-01-22T07:20:31.946Z,79.05
2023-01-22T07:22:59.888Z,79.11
2023-01-22T07:25:27.303Z,79.03
2023-01-22T07:27:58.597Z,78.85
2023-01-22T07:30:25.198Z,78.77
2023-01-22T07:32:51.771Z,78.97
2023-01-22T07:35:18.830Z,78.79
2023-01-22T07:37:51.361Z,78.85
2023-01-22T07:40:20.508Z,78.84
2023-01-22T07:42:47.723Z,78.88
2023-01-22T07:45:14.351Z,79.03
2023-01-22T07:47:40.998Z,79.05
2023-01-22T07:50:07.917Z,79.12
2023-01-22T07:52:34.479Z,79.02
2023-01-22T07:55:01.064Z,79.46
2023-01-22T07:57:27.634Z,79.29
2023-01-22T07:59:54.193Z,79.18
2023-01-22T08:02:20.897Z,79.02
2023-01-22T08:04:47.983Z,78.88
2023-01-22T08:07:15.473Z,79.17
2023-01-22T08:09:42.003Z,78.96
2023-01-22T08:12:08.572Z,79.08
2023-01-22T08:14:35.113Z,78.77
2023-01-22T08:17:01.693Z,79.38
2023-01-22T08:19:29.638Z,79.37
2023-01-22T08:21:56.367Z,79.10
2023-01-22T08:24:23.397Z,79.21
2023-01-22T08:26:49.959Z,78.92
2023-01-22T08:29:16.524Z,79.05
2023-01-22T08:31:43.179Z,78.90
2023-01-22T08:34:09.816Z,78.91
2023-01-22T08:36:36.458Z,79.09
2023-01-22T08:39:03.022Z,79.08
2023-01-22T08:41:32.642Z,79.05
2023-01-22T08:43:59.234Z,79.41
2023-01-22T08:46:26.948Z,79.49
2023-01-22T08:48:53.608Z,79.12
2023-01-22T08:51:20.256Z,79.15
2023-01-22T08:53:46.848Z,79.52
2023-01-22T08:56:13.399Z,79.33
2023-01-22T08:58:40.654Z,79.52
2023-01-22T09:01:07.284Z,79.35
2023-01-22T09:03:35.577Z,79.34
2023-01-22T09:06:02.120Z,79.60
2023-01-22T09:08:28.665Z,79.24
2023-01-22T09:10:55.297Z,79.13
2023-01-22T09:13:21.838Z,79.21
2023-01-22T09:15:48.822Z,79.53
2023-01-22T09:18:15.385Z,79.46
2023-01-22T09:20:41.914Z,79.41
2023-01-22T09:23:08.447Z,79.23
2023-01-22T09:25:35.037Z,79.23
2023-01-22T09:28:02.800Z,79.14
2023-01-22T09:30:30.613Z,79.19
2023-01-22T09:32:57.228Z,79.33
2023-01-22T09:35:24.042Z,79.82
2023-01-22T09:37:50.642Z,79.88
2023-01-22T09:40:21.598Z,79.80
2023-01-22T09:42:48.598Z,79.84
2023-01-22T09:45:15.163Z,79.96
2023-01-22T09:47:47.613Z,79.68
2023-01-22T09:50:15.498Z,79.52
2023-01-22T09:52:42.150Z,79.51
2023-01-22T09:55:12.847Z,79.45
2023-01-22T09:57:49.740Z,79.47
2023-01-22T10:00:18.050Z,79.83
2023-01-22T10:02:53.128Z,79.65
2023-01-22T10:05:33.712Z,79.88
2023-01-22T10:08:06.350Z,79.72
2023-01-22T10:10:32.865Z,79.21
2023-01-22T10:13:01.699Z,79.37
2023-01-22T10:15:28.226Z,79.24
2023-01-22T10:17:55.251Z,79.25
2023-01-22T10:20:21.878Z,79.22
2023-01-22T10:22:49.171Z,78.97
2023-01-22T10:25:16.414Z,79.13
2023-01-22T10:27:43.124Z,79.13
2023-01-22T10:30:16.240Z,79.10
2023-01-22T10:32:42.956Z,79.37
2023-01-22T10:35:20.052Z,79.44
2023-01-22T10:37:51.211Z,79.03
2023-01-22T10:40:38.170Z,79.33
2023-01-22T10:43:11.984Z,79.21
2023-01-22T10:45:39.075Z,79.36
2023-01-22T10:48:06.749Z,79.41
2023-01-22T10:50:33.289Z,79.79
2023-01-22T10:52:59.911Z,79.47
2023-01-22T10:55:30.904Z,78.98
2023-01-22T10:58:04.557Z,78.87
2023-01-22T11:00:46.770Z,78.98
2023-01-22T11:03:21.428Z,79.05
2023-01-22T11:05:48.135Z,79.16
2023-01-22T11:08:15.777Z,79.17
2023-01-22T11:10:47.531Z,79.24
2023-01-22T11:13:23.319Z,79.40
2023-01-22T11:15:56.322Z,79.00
2023-01-22T11:18:25.887Z,78.92
2023-01-22T11:20:54.215Z,78.97
2023-01-22T11:23:24.582Z,79.28
2023-01-22T11:25:56.957Z,78.87
2023-01-22T11:28:28.152Z,78.75
2023-01-22T11:30:58.476Z,78.99
2023-01-22T11:33:28.108Z,79.67
2023-01-22T11:35:56.017Z,79.04
2023-01-22T11:38:25.273Z,78.56
2023-01-22T11:40:54.932Z,78.30
2023-01-22T11:46:48.888Z,78.50
2023-01-22T11:49:22.460Z,78.49
2023-01-22T11:51:48.984Z,78.22
2023-01-22T11:54:19.758Z,78.79
2023-01-22T11:56:53.210Z,78.47
2023-01-22T11:59:22.878Z,78.90
2023-01-22T12:01:49.462Z,78.92
2023-01-22T12:04:31.714Z,78.61
2023-01-22T12:07:17.190Z,78.53
2023-01-22T12:09:43.749Z,78.36
2023-01-22T12:12:10.289Z,78.21
2023-01-22T12:14:50.011Z,78.37
2023-01-22T12:17:27.408Z,78.52
2023-01-22T12:20:13.230Z,78.68
2023-01-22T12:22:42.800Z,78.76
2023-01-22T12:25:28.114Z,78.54
2023-01-22T12:27:55.701Z,78.34
2023-01-22T12:30:31.126Z,78.46
2023-01-22T12:32:59.135Z,78.42
2023-01-22T12:35:27.011Z,78.63
2023-01-22T12:38:03.737Z,78.37
2023-01-22T12:40:39.754Z,78.87
2023-01-22T12:43:06.807Z,78.93
2023-01-22T12:45:49.556Z,78.63
2023-01-22T12:48:25.384Z,78.63
2023-01-22T12:50:59.487Z,78.67
2023-01-22T12:53:27.764Z,78.46
2023-01-22T12:56:03.773Z,78.70
2023-01-22T12:58:31.781Z,78.94
2023-01-22T13:01:04.019Z,78.90
2023-01-22T13:03:32.327Z,79.32
2023-01-22T13:05:59.920Z,79.04
2023-01-22T13:08:35.727Z,78.86
2023-01-22T13:11:05.265Z,78.52
2023-01-22T13:13:40.444Z,78.24
2023-01-22T13:16:08.213Z,78.39
2023-01-22T13:18:38.434Z,78.50
2023-01-22T13:21:05.996Z,78.55
2023-01-22T13:23:33.827Z,78.58
2023-01-22T13:26:00.439Z,78.41
2023-01-22T13:28:42.156Z,78.25
2023-01-22T13:31:15.215Z,78.54
2023-01-22T13:34:06.352Z,78.38
2023-01-22T13:36:33.135Z,78.41
2023-01-22T13:39:00.226Z,78.08
2023-01-22T13:44:03.670Z,78.13
2023-01-22T13:46:30.828Z,78.24
2023-01-22T13:49:20.895Z,78.25
2023-01-22T13:51:47.919Z,78.22
2023-01-22T13:54:28.682Z,78.13
2023-01-22T13:56:58.160Z,78.03
2023-01-22T13:59:26.307Z,78.03
2023-01-22T14:01:53.214Z,78.11
2023-01-22T14:04:27.632Z,78.14
2023-01-22T14:06:54.293Z,77.72
2023-01-22T14:09:29.878Z,77.75
2023-01-22T14:11:59.516Z,77.63
2023-01-22T14:14:26.231Z,77.49
2023-01-22T14:16:53.121Z,77.41
2023-01-22T14:22:13.324Z,77.36
2023-01-22T14:25:16.928Z,77.23
2023-01-22T14:27:44.857Z,76.91
2023-01-22T14:30:14.663Z,76.98
2023-01-22T14:32:42.112Z,76.99
2023-01-22T14:35:10.072Z,76.94
2023-01-22T14:37:40.164Z,77.06
2023-01-22T14:40:07.530Z,77.15
2023-01-22T14:42:34.188Z,77.23
2023-01-22T14:45:00.779Z,77.28
2023-01-22T14:47:27.380Z,77.54
2023-01-22T14:49:54.390Z,77.67
2023-01-22T14:52:20.977Z,77.37
2023-01-22T14:54:47.535Z,77.30
2023-01-22T14:57:28.942Z,77.50
2023-01-22T14:59:55.637Z,77.39
2023-01-22T15:02:22.983Z,77.36
2023-01-22T15:05:03.212Z,77.41
